.
WxDataArchive / Data Records for 2009-01-29
2009-01-28 January 2009 2009-01-30

Data Records for Thursday, 29 January 2009

Time	Temp	Chill	HIndex	Humid	Dewpt	 Wind 	HiWind	WindDir	Rain 	Barom 
-----	----	-----	------	-----	-----	------	------	-------	-----	----- 
00:00	11.6	11.6	11.6	77	5.8	2	6	248	0.00	30.062 
00:05	11.6	11.6	11.6	77	5.8	2	5	248	0.00	30.056 
00:10	11.6	11.6	11.6	77	5.8	2	4	248	0.00	30.054 
00:15	11.7	11.7	11.7	77	5.9	2	5	248	0.00	30.054 
00:20	11.7	11.7	11.7	77	5.9	2	5	248	0.00	30.051 
00:25	11.9	11.9	11.9	77	6.1	2	5	248	0.00	30.052 
00:30	12.1	12.1	12.1	77	6.3	2	7	248	0.00	30.050 
00:35	12.1	12.1	12.1	76	6.0	1	5	248	0.00	30.045 
00:40	12.1	12.1	12.1	76	6.0	1	4	248	0.00	30.041 
00:45	12.1	12.1	12.1	76	6.0	1	5	248	0.00	30.039 
00:50	12.1	12.1	12.1	76	6.0	2	4	248	0.00	30.038 
00:55	12.1	12.1	12.1	77	6.3	2	4	248	0.00	30.038 
01:00	12.1	12.1	12.1	76	6.0	0	2	248	0.00	30.032 
01:05	12.1	12.1	12.1	77	6.3	1	4	248	0.00	30.030 
01:10	12.1	12.1	12.1	77	6.3	2	5	248	0.00	30.034 
01:15	12.3	12.3	12.3	77	6.5	1	4	248	0.00	30.032 
01:20	12.3	12.3	12.3	77	6.5	1	4	248	0.00	30.030 
01:25	12.3	12.3	12.3	77	6.5	2	5	248	0.00	30.031 
01:30	12.3	12.3	12.3	77	6.5	1	5	248	0.00	30.033 
01:35	12.1	12.1	12.1	77	6.3	1	4	248	0.00	30.034 
01:40	11.9	11.9	11.9	77	6.1	1	3	248	0.00	30.033 
01:45	11.7	11.7	11.7	77	5.9	2	5	248	0.00	30.034 
01:50	11.7	11.7	11.7	77	5.9	2	6	248	0.00	30.035 
01:55	11.7	11.7	11.7	77	5.9	1	2	248	0.00	30.034 
02:00	11.7	11.7	11.7	77	5.9	1	3	225	0.00	30.030 
02:05	11.7	11.7	11.7	78	6.2	1	3	225	0.00	30.029 
02:10	11.7	11.7	11.7	78	6.2	0	3	270	0.00	30.025 
02:15	11.7	11.7	11.7	78	6.2	1	2	248	0.00	30.026 
02:20	11.7	11.7	11.7	78	6.2	1	4	248	0.00	30.024 
02:25	11.7	11.7	11.7	78	6.2	1	4	248	0.00	30.022 
02:30	11.6	11.6	11.6	78	6.1	1	3	292	0.00	30.024 
02:35	11.4	11.4	11.4	78	5.9	1	3	248	0.00	30.024 
02:40	11.2	11.2	11.2	78	5.7	2	5	248	0.00	30.024 
02:45	11.2	11.2	11.2	78	5.7	1	5	248	0.00	30.025 
02:50	11.2	11.2	11.2	79	6.0	1	5	248	0.00	30.022 
02:55	11.4	11.4	11.4	79	6.2	2	5	248	0.00	30.020 
03:00	11.4	11.4	11.4	80	6.5	1	4	248	0.00	30.019 
03:05	11.6	11.6	11.6	80	6.6	1	3	248	0.00	30.020 
03:10	11.7	11.7	11.7	80	6.7	1	4	248	0.00	30.021 
03:15	11.7	11.7	11.7	80	6.7	1	3	248	0.00	30.017 
03:20	11.7	11.7	11.7	81	7.0	1	5	248	0.00	30.020 
03:25	11.7	11.7	11.7	81	7.0	1	5	248	0.00	30.020 
03:30	11.9	11.9	11.9	81	7.2	2	6	248	0.00	30.021 
03:35	12.1	12.1	12.1	81	7.4	1	4	248	0.00	30.019 
03:40	12.3	12.3	12.3	81	7.6	1	5	248	0.00	30.014 
03:45	12.4	12.4	12.4	82	8.0	2	6	248	0.00	30.006 
03:50	12.6	12.6	12.6	82	8.2	1	5	225	0.00	30.004 
03:55	12.8	12.8	12.8	82	8.4	2	5	248	0.00	30.005 
04:00	12.9	12.9	12.9	83	8.7	2	7	270	0.00	30.007 
04:05	13.3	13.3	13.3	83	9.1	2	4	248	0.00	30.011 
04:10	13.3	13.3	13.3	83	9.1	2	5	225	0.00	30.005 
04:15	13.5	13.5	13.5	83	9.3	1	5	248	0.00	30.005 
04:20	13.6	13.6	13.6	83	9.4	1	4	248	0.00	30.004 
04:25	13.8	13.8	13.8	83	9.6	2	4	248	0.00	30.004 
04:30	14.0	14.0	14.0	84	10.1	2	4	248	0.00	29.999 
04:35	14.0	14.0	14.0	84	10.1	1	5	248	0.00	29.999 
04:40	14.1	14.1	14.1	84	10.2	2	5	248	0.00	30.001 
04:45	14.3	14.3	14.3	84	10.4	2	5	248	0.00	30.001 
04:50	14.4	14.4	14.4	84	10.5	3	9	248	0.00	29.999 
04:55	14.8	14.8	14.8	84	10.9	3	6	248	0.00	29.996 
05:00	14.9	14.9	14.9	84	11.0	1	6	248	0.00	29.996 
05:05	14.9	14.9	14.9	84	11.0	2	5	248	0.00	29.999 
05:10	15.1	15.1	15.1	84	11.2	2	5	248	0.00	29.996 
05:15	15.1	15.1	15.1	84	11.2	2	5	248	0.00	29.991 
05:20	15.2	15.2	15.2	85	11.5	2	9	225	0.00	29.990 
05:25	15.4	15.4	15.4	85	11.7	2	5	248	0.00	29.989 
05:30	15.6	15.6	15.6	85	11.9	2	5	225	0.00	29.985 
05:35	15.7	15.7	15.7	85	12.0	2	6	225	0.00	29.983 
05:40	15.9	15.9	15.9	85	12.2	2	7	248	0.00	29.985 
05:45	16.1	16.1	16.1	85	12.4	2	6	248	0.00	29.984 
05:50	16.2	16.2	16.2	85	12.5	3	7	248	0.00	29.984 
05:55	16.4	16.4	16.4	86	13.0	3	7	248	0.00	29.979 
06:00	16.5	16.5	16.5	86	13.1	2	5	248	0.00	29.975 
06:05	16.7	16.7	16.7	86	13.3	3	5	248	0.00	29.977 
06:10	16.9	16.9	16.9	86	13.5	2	7	248	0.00	29.979 
06:15	17.0	17.0	17.0	86	13.6	3	6	248	0.00	29.983 
06:20	17.2	17.2	17.2	86	13.7	3	7	248	0.00	29.984 
06:25	17.2	17.2	17.2	86	13.7	3	10	248	0.00	29.979 
06:30	17.3	17.3	17.3	86	13.8	3	6	248	0.00	29.974 
06:35	17.3	17.3	17.3	86	13.8	3	11	248	0.00	29.974 
06:40	17.5	11.3	17.5	86	14.0	4	10	248	0.00	29.975 
06:45	17.7	17.7	17.7	86	14.2	3	6	248	0.00	29.975 
06:50	17.8	17.8	17.8	86	14.3	2	9	248	0.00	29.976 
06:55	17.8	17.8	17.8	86	14.3	3	6	270	0.00	29.972 
07:00	18.0	11.9	18.0	86	14.5	4	10	270	0.00	29.973 
07:05	18.1	18.1	18.1	86	14.6	3	7	248	0.00	29.979 
07:10	18.1	18.1	18.1	86	14.6	2	10	248	0.00	29.976 
07:15	18.3	18.3	18.3	86	14.8	3	9	248	0.00	29.974 
07:20	18.4	18.4	18.4	86	14.9	2	5	270	0.00	29.974 
07:25	18.6	18.6	18.6	86	15.1	2	4	248	0.00	29.974 
07:30	18.6	18.6	18.6	86	15.1	3	7	248	0.00	29.973 
07:35	18.8	18.8	18.8	86	15.3	3	6	248	0.00	29.973 
07:40	18.8	18.8	18.8	86	15.3	2	7	248	0.00	29.972 
07:45	18.9	18.9	18.9	86	15.4	3	9	248	0.00	29.974 
07:50	18.9	18.9	18.9	86	15.4	3	10	248	0.00	29.976 
07:55	19.1	19.1	19.1	86	15.6	3	6	248	0.00	29.975 
08:00	19.2	13.3	19.2	86	15.7	4	12	248	0.00	29.977 
08:05	19.2	13.3	19.2	86	15.7	4	7	248	0.00	29.978 
08:10	19.4	19.4	19.4	86	15.9	3	11	248	0.00	29.978 
08:15	19.4	19.4	19.4	86	15.9	2	12	248	0.00	29.979 
08:20	19.5	19.5	19.5	86	16.0	3	6	248	0.00	29.978 
08:25	19.7	19.7	19.7	86	16.2	3	8	248	0.00	29.977 
08:30	19.7	19.7	19.7	85	15.9	3	9	248	0.00	29.980 
08:35	19.9	14.1	19.9	85	16.1	4	10	248	0.00	29.979 
08:40	20.0	20.0	20.0	85	16.2	3	9	248	0.00	29.978 
08:45	20.0	20.0	20.0	85	16.2	3	7	270	0.00	29.979 
08:50	20.2	14.4	20.2	85	16.4	4	12	248	0.00	29.978 
08:55	20.2	13.2	20.2	85	16.4	5	12	248	0.00	29.978 
09:00	20.3	14.6	20.3	85	16.5	4	7	248	0.00	29.984 
09:05	20.5	20.5	20.5	85	16.7	3	7	248	0.00	29.987 
09:10	20.5	20.5	20.5	85	16.7	3	10	248	0.00	29.985 
09:15	20.6	14.9	20.6	85	16.8	4	13	248	0.00	29.984 
09:20	20.8	20.8	20.8	85	17.0	3	10	248	0.00	29.985 
09:25	21.0	15.4	21.0	85	17.2	4	9	248	0.00	29.986 
09:30	21.0	15.4	21.0	85	17.2	4	11	248	0.00	29.983 
09:35	21.1	15.5	21.1	84	17.0	4	10	270	0.00	29.984 
09:40	21.4	21.4	21.4	84	17.3	3	10	248	0.00	29.986 
09:45	21.4	21.4	21.4	84	17.3	3	10	248	0.00	29.987 
09:50	21.6	21.6	21.6	84	17.5	3	6	270	0.00	29.988 
09:55	21.8	16.3	21.8	84	17.7	4	9	270	0.00	29.988 
10:00	21.9	16.4	21.9	84	17.8	4	11	270	0.00	29.989 
10:05	21.9	16.4	21.9	84	17.8	4	11	270	0.00	29.988 
10:10	22.1	16.6	22.1	83	17.7	4	12	270	0.00	29.988 
10:15	22.2	22.2	22.2	83	17.8	3	9	248	0.00	29.988 
10:20	22.2	22.2	22.2	83	17.8	2	7	248	0.00	29.988 
10:25	22.4	17.0	22.4	83	18.0	4	12	248	0.00	29.989 
10:30	22.4	17.0	22.4	83	18.0	4	9	248	0.00	29.987 
10:35	22.5	17.1	22.5	83	18.1	4	12	248	0.00	29.988 
10:40	22.7	17.3	22.7	82	18.0	4	7	270	0.00	29.988 
10:45	22.9	22.9	22.9	82	18.2	3	7	248	0.00	29.989 
10:50	22.9	17.6	22.9	82	18.2	4	10	248	0.00	29.988 
10:55	23.0	23.0	23.0	82	18.3	3	11	270	0.00	29.988 
11:00	23.2	17.9	23.2	82	18.5	4	12	248	0.00	29.986 
11:05	23.3	18.0	23.3	81	18.3	4	9	248	0.00	29.987 
11:10	23.5	18.3	23.5	81	18.5	4	9	248	0.00	29.986 
11:15	23.6	23.6	23.6	81	18.6	3	11	248	0.00	29.977 
11:20	24.1	24.1	24.1	81	19.1	2	6	248	0.00	29.977 
11:25	24.4	24.4	24.4	81	19.4	3	9	248	0.00	29.979 
11:30	24.4	18.1	24.4	80	19.1	5	10	248	0.00	29.977 
11:35	24.7	19.6	24.7	79	19.1	4	14	270	0.00	29.978 
11:40	24.7	19.6	24.7	79	19.1	4	9	248	0.00	29.975 
11:45	25.0	20.0	25.0	79	19.4	4	10	270	0.00	29.974 
11:50	25.3	25.3	25.3	79	19.7	3	9	248	0.00	29.975 
11:55	25.3	20.3	25.3	79	19.7	4	10	248	0.00	29.974 
12:00	25.4	20.5	25.4	78	19.5	4	10	270	0.00	29.973 
12:05	25.6	20.7	25.6	78	19.7	4	13	270	0.00	29.973 
12:10	25.8	20.9	25.8	78	19.9	4	10	248	0.00	29.970 
12:15	25.8	18.8	25.8	77	19.6	6	13	270	0.00	29.969 
12:20	25.7	19.7	25.7	78	19.8	5	13	270	0.00	29.969 
12:25	25.8	20.9	25.8	77	19.6	4	13	270	0.00	29.971 
12:30	25.8	20.9	25.8	78	19.9	4	10	270	0.00	29.968 
12:35	26.0	21.1	26.0	77	19.8	4	9	270	0.00	29.968 
12:40	26.1	21.3	26.1	77	19.9	4	9	270	0.00	29.964 
12:45	26.3	21.5	26.3	77	20.1	4	10	248	0.00	29.960 
12:50	26.4	26.4	26.4	77	20.2	3	10	270	0.00	29.957 
12:55	26.6	26.6	26.6	77	20.4	3	10	270	0.00	29.955 
13:00	26.4	21.6	26.4	77	20.2	4	13	270	0.00	29.954 
13:05	26.4	21.6	26.4	77	20.2	4	9	248	0.00	29.955 
13:10	26.4	20.5	26.4	77	20.2	5	11	248	0.00	29.954 
13:15	26.6	26.6	26.6	77	20.4	3	10	270	0.00	29.954 
13:20	26.6	26.6	26.6	77	20.4	3	6	270	0.00	29.953 
13:25	26.3	20.4	26.3	77	20.1	5	13	248	0.00	29.953 
13:30	26.0	20.0	26.0	77	19.8	5	11	248	0.00	29.954 
13:35	26.0	21.1	26.0	78	20.1	4	9	248	0.00	29.953 
13:40	26.0	21.1	26.0	78	20.1	4	8	248	0.00	29.952 
13:45	26.0	26.0	26.0	78	20.1	3	10	270	0.00	29.952 
13:50	25.8	25.8	25.8	78	19.9	3	10	270	0.00	29.952 
13:55	25.8	20.9	25.8	78	19.9	4	9	270	0.00	29.947 
14:00	25.8	20.9	25.8	78	19.9	4	10	248	0.00	29.944 
14:05	25.8	20.9	25.8	79	20.2	4	12	248	0.00	29.949 
14:10	26.0	26.0	26.0	79	20.4	3	9	248	0.00	29.945 
14:15	26.0	21.1	26.0	78	20.1	4	10	248	0.00	29.946 
14:20	26.1	26.1	26.1	79	20.5	3	6	248	0.00	29.941 
14:25	26.1	26.1	26.1	79	20.5	3	7	248	0.00	29.941 
14:30	26.4	26.4	26.4	79	20.8	2	6	225	0.00	29.942 
14:35	26.4	26.4	26.4	78	20.5	3	6	248	0.00	29.942 
14:40	26.3	26.3	26.3	78	20.4	2	9	270	0.00	29.945 
14:45	26.1	21.3	26.1	78	20.2	4	10	270	0.00	29.949 
14:50	26.1	26.1	26.1	79	20.5	3	7	248	0.00	29.948 
14:55	26.1	21.3	26.1	79	20.5	4	10	270	0.00	29.950 
15:00	26.1	26.1	26.1	79	20.5	3	9	225	0.00	29.949 
15:05	26.1	26.1	26.1	79	20.5	3	6	248	0.00	29.947 
15:10	26.3	26.3	26.3	80	21.0	3	8	248	0.00	29.947 
15:15	26.3	26.3	26.3	80	21.0	3	9	248	0.00	29.948 
15:20	26.4	26.4	26.4	80	21.1	2	6	248	0.00	29.949 
15:25	26.6	26.6	26.6	79	21.0	3	10	248	0.00	29.946 
15:30	26.6	26.6	26.6	79	21.0	3	7	248	0.00	29.945 
15:35	26.6	26.6	26.6	80	21.3	2	7	225	0.00	29.942 
15:40	26.7	26.7	26.7	79	21.1	3	6	248	0.00	29.942 
15:45	26.9	22.2	26.9	79	21.3	4	11	248	0.00	29.945 
15:50	26.9	21.1	26.9	79	21.3	5	12	248	0.00	29.950 
15:55	26.9	26.9	26.9	79	21.3	3	9	248	0.00	29.950 
16:00	27.0	27.0	27.0	79	21.4	3	9	248	0.00	29.952 
16:05	27.0	22.3	27.0	79	21.4	4	11	248	0.00	29.951 
16:10	27.0	22.3	27.0	78	21.1	4	10	248	0.00	29.950 
16:15	27.2	27.2	27.2	78	21.3	3	7	248	0.00	29.950 
16:20	27.2	27.2	27.2	78	21.3	3	7	248	0.00	29.950 
16:25	27.2	27.2	27.2	78	21.3	3	7	248	0.00	29.951 
16:30	27.3	27.3	27.3	78	21.4	3	11	248	0.00	29.954 
16:35	27.2	21.4	27.2	77	21.0	5	10	248	0.00	29.954 
16:40	27.2	27.2	27.2	77	21.0	3	7	248	0.00	29.954 
16:45	27.2	27.2	27.2	78	21.3	2	7	248	0.00	29.955 
16:50	27.2	22.5	27.2	78	21.3	4	10	248	0.00	29.954 
16:55	27.0	27.0	27.0	78	21.1	3	14	248	0.00	29.954 
17:00	27.0	22.3	27.0	78	21.1	4	8	248	0.00	29.961 
17:05	27.0	27.0	27.0	78	21.1	3	6	248	0.00	29.959 
17:10	26.9	26.9	26.9	78	21.0	3	11	248	0.00	29.959 
17:15	26.9	22.2	26.9	78	21.0	4	11	248	0.00	29.961 
17:20	26.9	22.2	26.9	78	21.0	4	9	270	0.00	29.962 
17:25	26.9	26.9	26.9	78	21.0	3	8	248	0.00	29.963 
17:30	26.9	22.2	26.9	78	21.0	4	11	248	0.00	29.966 
17:35	26.9	26.9	26.9	78	21.0	3	10	248	0.00	29.966 
17:40	26.7	26.7	26.7	78	20.8	3	5	248	0.00	29.965 
17:45	26.7	20.9	26.7	77	20.5	5	12	248	0.00	29.971 
17:50	26.7	20.9	26.7	77	20.5	5	12	270	0.00	29.974 
17:55	26.7	22.0	26.7	78	20.8	4	12	248	0.00	29.971 
18:00	26.6	26.6	26.6	78	20.7	3	7	270	0.00	29.970 
18:05	26.6	26.6	26.6	79	21.0	3	6	248	0.00	29.971 
18:10	26.6	26.6	26.6	79	21.0	3	9	248	0.00	29.970 
18:15	26.6	26.6	26.6	79	21.0	3	9	248	0.00	29.971 
18:20	26.6	20.7	26.6	78	20.7	5	11	248	0.00	29.972 
18:25	26.6	26.6	26.6	78	20.7	3	7	248	0.00	29.974 
18:30	26.6	26.6	26.6	78	20.7	3	10	270	0.00	29.974 
18:35	26.6	26.6	26.6	78	20.7	3	8	248	0.00	29.975 
18:40	26.6	26.6	26.6	78	20.7	3	9	248	0.00	29.977 
18:45	26.4	26.4	26.4	78	20.5	3	9	248	0.00	29.977 
18:50	26.4	26.4	26.4	78	20.5	3	7	248	0.00	29.978 
18:55	26.6	20.7	26.6	78	20.7	5	12	248	0.00	29.979 
19:00	26.6	20.7	26.6	78	20.7	5	13	248	0.00	29.982 
19:05	26.6	21.8	26.6	78	20.7	4	9	248	0.00	29.980 
19:10	26.6	21.8	26.6	79	21.0	4	10	248	0.00	29.982 
19:15	26.6	26.6	26.6	79	21.0	3	12	248	0.00	29.980 
19:20	26.4	26.4	26.4	79	20.8	3	7	248	0.00	29.984 
19:25	26.4	21.6	26.4	79	20.8	4	10	248	0.00	29.984 
19:30	26.4	26.4	26.4	79	20.8	2	7	248	0.00	29.982 
19:35	26.4	26.4	26.4	80	21.1	3	8	248	0.00	29.981 
19:40	26.4	26.4	26.4	80	21.1	3	7	248	0.00	29.980 
19:45	26.4	26.4	26.4	80	21.1	2	7	248	0.00	29.979 
19:50	26.4	26.4	26.4	80	21.1	2	7	248	0.00	29.978 
19:55	26.3	26.3	26.3	80	21.0	3	10	248	0.00	29.979 
20:00	26.4	26.4	26.4	80	21.1	3	7	270	0.00	29.978 
20:05	26.4	21.6	26.4	80	21.1	4	10	248	0.00	29.976 
20:10	26.4	26.4	26.4	80	21.1	3	10	248	0.00	29.975 
20:15	26.4	26.4	26.4	80	21.1	3	7	248	0.00	29.974 
20:20	26.4	26.4	26.4	80	21.1	3	9	270	0.00	29.972 
20:25	26.4	26.4	26.4	80	21.1	3	8	248	0.00	29.971 
20:30	26.4	21.6	26.4	80	21.1	4	11	270	0.00	29.972 
20:35	26.6	20.7	26.6	80	21.3	5	12	248	0.00	29.969 
20:40	26.6	26.6	26.6	80	21.3	3	7	248	0.00	29.969 
20:45	26.6	21.8	26.6	80	21.3	4	10	270	0.00	29.973 
20:50	26.6	20.7	26.6	80	21.3	5	16	270	0.00	29.976 
20:55	26.6	19.8	26.6	79	21.0	6	16	270	0.00	29.975 
21:00	26.6	20.7	26.6	78	20.7	5	11	270	0.00	29.975 
21:05	26.4	20.5	26.4	76	19.9	5	12	270	0.00	29.973 
21:10	26.3	19.4	26.3	75	19.5	6	12	270	0.00	29.975 
21:15	26.1	20.1	26.1	74	19.0	5	13	270	0.00	29.976 
21:20	26.1	21.3	26.1	74	19.0	4	10	248	0.00	29.976 
21:25	26.0	21.1	26.0	74	18.9	4	13	248	0.00	29.976 
21:30	26.0	26.0	26.0	73	18.6	3	9	270	0.00	29.976 
21:35	25.8	20.9	25.8	73	18.4	4	10	270	0.00	29.977 
21:40	25.8	19.8	25.8	72	18.0	5	13	270	0.00	29.976 
21:45	25.7	20.8	25.7	71	17.6	4	10	270	0.00	29.977 
21:50	25.7	19.7	25.7	71	17.6	5	12	248	0.00	29.977 
21:55	25.7	20.8	25.7	71	17.6	4	11	270	0.00	29.977 
22:00	25.6	20.7	25.6	71	17.5	4	10	248	0.00	29.976 
22:05	25.6	20.7	25.6	72	17.8	4	13	248	0.00	29.976 
22:10	25.4	25.4	25.4	72	17.7	3	13	270	0.00	29.977 
22:15	25.4	19.3	25.4	71	17.3	5	12	270	0.00	29.978 
22:20	25.3	19.2	25.3	71	17.2	5	12	270	0.00	29.978 
22:25	25.1	20.1	25.1	70	16.7	4	10	270	0.00	29.981 
22:30	24.8	19.8	24.8	70	16.4	4	9	270	0.00	29.980 
22:35	24.7	19.6	24.7	70	16.3	4	9	270	0.00	29.980 
22:40	24.5	18.3	24.5	71	16.5	5	11	270	0.00	29.985 
22:45	24.4	19.3	24.4	71	16.4	4	11	270	0.00	29.983 
22:50	24.1	19.0	24.1	72	16.4	4	12	270	0.00	29.982 
22:55	23.9	18.7	23.9	72	16.2	4	9	270	0.00	29.983 
23:00	23.8	18.6	23.8	73	16.4	4	14	248	0.00	29.987 
23:05	23.6	18.4	23.6	73	16.2	4	14	270	0.00	29.988 
23:10	23.2	17.9	23.2	76	16.8	4	10	270	0.00	29.989 
23:15	22.4	15.8	22.4	66	12.8	5	9	270	0.00	29.988 
23:20	21.6	14.9	21.6	64	11.3	5	16	270	0.00	29.991 
23:25	21.1	21.1	21.1	63	10.5	3	6	270	0.00	29.992 
23:30	20.6	14.9	20.6	62	9.7	4	10	270	0.00	29.990 
23:35	20.2	14.4	20.2	62	9.3	4	10	270	0.00	29.990 
23:40	19.9	14.1	19.9	62	9.0	4	11	270	0.00	29.989 
23:45	19.5	12.4	19.5	62	8.6	5	11	270	0.00	29.992 
23:50	19.4	13.5	19.4	63	8.9	4	12	270	0.00	29.993 
23:55	19.1	19.1	19.1	63	8.6	3	9	270	0.00	29.993 

CoCoRaHS
IN-AL-39
A2 Web Hosting
Creative Commons License
GoDaddy
search engine by freefind advanced

loaded 2018-11-15 15:56:18 • last modified 2010-11-18 10:43:29
Privacy PolicyDisclaimer
• wx.awcolley.com is powered by PmWiki v.2002016 •
• all content (unless otherwise noted) © 2018 A W Colley